<?xml version='1.0' encoding='UTF-8'?><gpx version="1.1" creator="JPX - https://github.com/jenetics/jpx" xmlns="http://www.topografix.com/GPX/1/1"><trk><trkseg><trkpt lat="43.9428052" lon="12.7239972"><ele>27.0</ele><time>2026-04-30T11:01:00.659Z</time></trkpt><trkpt lat="43.9428574" lon="12.7240557"><ele>27.0</ele><time>2026-04-30T11:01:06.649Z</time></trkpt><trkpt lat="43.9429096" lon="12.7241329"><ele>27.0</ele><time>2026-04-30T11:01:12.649Z</time></trkpt><trkpt lat="43.9429455" lon="12.7242071"><ele>27.0</ele><time>2026-04-30T11:01:30.652Z</time></trkpt><trkpt lat="43.9429085" lon="12.7241277"><ele>27.0</ele><time>2026-04-30T11:01:49.643Z</time></trkpt><trkpt lat="43.9428582" lon="12.7240448"><ele>27.0</ele><time>2026-04-30T11:01:53.652Z</time></trkpt><trkpt lat="43.9428022" lon="12.723994"><ele>27.0</ele><time>2026-04-30T11:01:58.651Z</time></trkpt><trkpt lat="43.9428451" lon="12.7240917"><ele>27.0</ele><time>2026-04-30T11:02:12.661Z</time></trkpt><trkpt lat="43.9428784" lon="12.7241701"><ele>27.0</ele><time>2026-04-30T11:02:15.651Z</time></trkpt><trkpt lat="43.9429105" lon="12.7242559"><ele>27.0</ele><time>2026-04-30T11:02:21.659Z</time></trkpt><trkpt lat="43.9429012" lon="12.7241674"><ele>27.0</ele><time>2026-04-30T11:02:41.667Z</time></trkpt><trkpt lat="43.9428524" lon="12.7240803"><ele>27.0</ele><time>2026-04-30T11:03:00.657Z</time></trkpt><trkpt lat="43.942797" lon="12.72403"><ele>27.0</ele><time>2026-04-30T11:03:10.676Z</time></trkpt><trkpt lat="43.9428559" lon="12.7240864"><ele>27.0</ele><time>2026-04-30T11:03:28.653Z</time></trkpt><trkpt lat="43.9428939" lon="12.7241572"><ele>27.0</ele><time>2026-04-30T11:03:31.685Z</time></trkpt><trkpt lat="43.9429478" lon="12.7242158"><ele>27.0</ele><time>2026-04-30T11:05:19.649Z</time></trkpt><trkpt lat="43.9430019" lon="12.7242686"><ele>27.0</ele><time>2026-04-30T11:05:33.671Z</time></trkpt><trkpt lat="43.9430431" lon="12.7243401"><ele>27.0</ele><time>2026-04-30T11:05:45.668Z</time></trkpt><trkpt lat="43.9429764" lon="12.7243321"><ele>27.0</ele><time>2026-04-30T11:06:44.656Z</time></trkpt><trkpt lat="43.942919" lon="12.7242777"><ele>27.0</ele><time>2026-04-30T11:06:54.687Z</time></trkpt><trkpt lat="43.9429865" lon="12.7243004"><ele>27.0</ele><time>2026-04-30T11:08:42.668Z</time></trkpt><trkpt lat="43.9430414" lon="12.7243553"><ele>27.0</ele><time>2026-04-30T11:08:50.669Z</time></trkpt><trkpt lat="43.9429877" lon="12.7242976"><ele>27.0</ele><time>2026-04-30T11:09:27.632Z</time></trkpt><trkpt lat="43.9429073" lon="12.7242555"><ele>27.0</ele><time>2026-04-30T11:09:45.645Z</time></trkpt><trkpt lat="43.9429326" lon="12.7243584"><ele>27.0</ele><time>2026-04-30T11:10:26.563Z</time></trkpt><trkpt lat="43.9429971" lon="12.7244267"><ele>27.0</ele><time>2026-04-30T11:10:29.656Z</time></trkpt><trkpt lat="43.9429976" lon="12.7243371"><ele>27.0</ele><time>2026-04-30T11:11:02.672Z</time></trkpt><trkpt lat="43.9429534" lon="12.7242578"><ele>27.0</ele><time>2026-04-30T11:11:08.634Z</time></trkpt><trkpt lat="43.9428954" lon="12.7241805"><ele>27.0</ele><time>2026-04-30T11:11:12.686Z</time></trkpt><trkpt lat="43.9428566" lon="12.7241056"><ele>27.0</ele><time>2026-04-30T11:11:15.673Z</time></trkpt><trkpt lat="43.9427951" lon="12.7240618"><ele>27.0</ele><time>2026-04-30T11:11:22.672Z</time></trkpt><trkpt lat="43.9427251" lon="12.7240915"><ele>27.0</ele><time>2026-04-30T11:11:39.663Z</time></trkpt><trkpt lat="43.9427585" lon="12.7240064"><ele>27.0</ele><time>2026-04-30T11:12:09.608Z</time></trkpt><trkpt lat="43.9428281" lon="12.7240324"><ele>27.0</ele><time>2026-04-30T11:12:34.652Z</time></trkpt><trkpt lat="43.9428738" lon="12.7241007"><ele>27.0</ele><time>2026-04-30T11:12:38.653Z</time></trkpt><trkpt lat="43.9429151" lon="12.7241829"><ele>27.0</ele><time>2026-04-30T11:12:41.668Z</time></trkpt><trkpt lat="43.9429616" lon="12.7242806"><ele>27.0</ele><time>2026-04-30T11:12:44.626Z</time></trkpt><trkpt lat="43.9430013" lon="12.7243831"><ele>27.0</ele><time>2026-04-30T11:12:47.672Z</time></trkpt><trkpt lat="43.9430479" lon="12.7244551"><ele>27.0</ele><time>2026-04-30T11:12:50.654Z</time></trkpt><trkpt lat="43.9430899" lon="12.7245249"><ele>27.0</ele><time>2026-04-30T11:12:53.678Z</time></trkpt><trkpt lat="43.9430292" lon="12.7244983"><ele>27.0</ele><time>2026-04-30T11:13:21.666Z</time></trkpt><trkpt lat="43.9430048" lon="12.7244011"><ele>27.0</ele><time>2026-04-30T11:13:44.629Z</time></trkpt><trkpt lat="43.942954" lon="12.7243139"><ele>27.0</ele><time>2026-04-30T11:13:48.629Z</time></trkpt><trkpt lat="43.9429095" lon="12.7242507"><ele>27.0</ele><time>2026-04-30T11:13:51.644Z</time></trkpt></trkseg></trk></gpx>